Time;durP1;ratioP1;P1;durP2;ratioP2;P2;SDS_P1;SDS_P2;PMS_P1;PMS_P2;Temp;Humidity;BMP_temperature;BMP_pressure;BME280_temperature;BME280_humidity;BME280_pressure;Samples;Min_cycle;Max_cycle;Signal;HPM_P1;HPM_P2
2023/12/15 00:00:01;;;;;;;45.17;16.80;;;;;;;;;;5015187;28;20013;-80
2023/12/15 00:02:27;;;;;;;37.97;16.15;;;;;;;;;;5012401;28;20010;-80
2023/12/15 00:04:53;;;;;;;41.30;17.33;;;;;;;;;;5019906;28;20306;-80
2023/12/15 00:07:19;;;;;;;34.22;16.42;;;;;;;;;;5014602;28;20036;-80
2023/12/15 00:09:45;;;;;;;38.33;17.25;;;;;;;;;;5023939;28;20025;-80
2023/12/15 00:12:11;;;;;;;39.38;17.17;;;;;;;;;;5013552;28;20022;-80
2023/12/15 00:14:37;;;;;;;36.63;16.42;;;;;;;;;;5007602;28;20018;-80
2023/12/15 00:17:03;;;;;;;41.90;18.23;;;;;;;;;;5017137;28;20033;-80
2023/12/15 00:19:29;;;;;;;40.90;17.35;;;;;;;;;;5027642;28;20031;-80
2023/12/15 00:21:55;;;;;;;36.30;16.38;;;;;;;;;;5005714;28;20049;-80
2023/12/15 00:24:21;;;;;;;36.67;16.70;;;;;;;;;;5012532;28;20434;-80
2023/12/15 00:26:47;;;;;;;36.33;15.77;;;;;;;;;;5023721;28;20026;-80
2023/12/15 00:29:13;;;;;;;35.00;16.08;;;;;;;;;;5020920;28;20067;-80
2023/12/15 00:31:39;;;;;;;29.73;15.82;;;;;;;;;;5015728;28;20429;-80
2023/12/15 00:34:05;;;;;;;38.63;14.95;;;;;;;;;;5014576;28;20037;-80
2023/12/15 00:36:31;;;;;;;39.13;16.17;;;;;;;;;;5022816;28;20013;-80
2023/12/15 00:38:58;;;;;;;34.83;14.85;;;;;;;;;;5024466;28;20075;-80
2023/12/15 00:41:24;;;;;;;29.05;14.45;;;;;;;;;;5017823;28;20021;-80
2023/12/15 00:43:50;;;;;;;28.83;14.13;;;;;;;;;;5011752;28;20453;-80
2023/12/15 00:46:16;;;;;;;32.53;14.35;;;;;;;;;;5026751;28;20069;-80
2023/12/15 00:48:42;;;;;;;35.75;14.52;;;;;;;;;;5022025;28;20017;-83
2023/12/15 00:51:08;;;;;;;32.55;15.15;;;;;;;;;;5018418;28;20028;-83
2023/12/15 00:53:34;;;;;;;35.58;15.32;;;;;;;;;;5010585;28;20386;-82
2023/12/15 00:56:00;;;;;;;39.50;15.13;;;;;;;;;;5013283;28;20029;-83
2023/12/15 00:58:26;;;;;;;38.17;15.38;;;;;;;;;;5024121;28;20018;-83
2023/12/15 01:00:52;;;;;;;38.83;15.68;;;;;;;;;;5018410;28;20021;-83
2023/12/15 01:03:18;;;;;;;35.15;15.15;;;;;;;;;;5019015;28;20071;-83
2023/12/15 01:05:44;;;;;;;34.97;14.93;;;;;;;;;;5021810;28;20040;-82
2023/12/15 01:08:11;;;;;;;36.67;15.13;;;;;;;;;;5021663;28;20474;-82
2023/12/15 01:10:37;;;;;;;37.30;15.65;;;;;;;;;;5014923;28;20087;-80
2023/12/15 01:13:03;;;;;;;37.17;15.85;;;;;;;;;;5019542;28;20044;-80
2023/12/15 01:15:29;;;;;;;41.90;15.68;;;;;;;;;;5007936;28;20037;-80
2023/12/15 01:17:55;;;;;;;33.15;15.00;;;;;;;;;;5006315;28;20058;-80
2023/12/15 01:20:21;;;;;;;38.83;15.25;;;;;;;;;;5008770;28;20021;-80
2023/12/15 01:22:48;;;;;;;38.83;15.60;;;;;;;;;;5019991;28;20022;-80
2023/12/15 01:25:14;;;;;;;36.15;15.70;;;;;;;;;;5007888;28;20040;-80
2023/12/15 01:27:40;;;;;;;34.45;14.25;;;;;;;;;;5022764;28;20583;-80
2023/12/15 01:30:06;;;;;;;35.22;14.60;;;;;;;;;;5017301;28;20405;-80
2023/12/15 01:32:32;;;;;;;34.22;15.10;;;;;;;;;;5027123;28;20018;-80
2023/12/15 01:34:58;;;;;;;34.47;14.18;;;;;;;;;;5025506;28;20016;-80
2023/12/15 01:37:24;;;;;;;29.17;14.45;;;;;;;;;;5010135;28;20041;-80
2023/12/15 01:39:51;;;;;;;41.22;15.50;;;;;;;;;;5026959;28;20041;-80
2023/12/15 01:42:17;;;;;;;35.05;15.15;;;;;;;;;;5021527;28;20010;-80
2023/12/15 01:44:44;;;;;;;34.60;14.40;;;;;;;;;;5009161;28;20354;-80
2023/12/15 01:47:13;;;;;;;34.65;14.20;;;;;;;;;;5021691;28;20436;-80
2023/12/15 01:49:39;;;;;;;37.60;14.27;;;;;;;;;;5017999;28;20420;-80
2023/12/15 01:52:05;;;;;;;39.97;13.05;;;;;;;;;;5014616;28;20088;-80
2023/12/15 01:54:31;;;;;;;33.15;13.45;;;;;;;;;;5020240;28;20405;-80
2023/12/15 01:56:58;;;;;;;42.00;14.23;;;;;;;;;;5013660;28;20547;-80
2023/12/15 01:59:24;;;;;;;39.22;13.95;;;;;;;;;;5023032;28;20071;-80
2023/12/15 02:01:50;;;;;;;42.13;14.55;;;;;;;;;;5013990;28;20049;-80
2023/12/15 02:04:16;;;;;;;34.05;13.18;;;;;;;;;;5016539;28;20354;-80
2023/12/15 02:06:42;;;;;;;34.95;13.82;;;;;;;;;;5011630;28;20021;-80
2023/12/15 02:09:08;;;;;;;46.08;14.40;;;;;;;;;;5021315;28;20017;-80
2023/12/15 02:11:34;;;;;;;48.00;15.25;;;;;;;;;;5028390;28;20024;-80
2023/12/15 02:14:00;;;;;;;37.72;14.93;;;;;;;;;;5020327;28;20013;-80
2023/12/15 02:16:26;;;;;;;41.70;15.13;;;;;;;;;;5013288;28;20489;-80
2023/12/15 02:18:52;;;;;;;34.53;13.27;;;;;;;;;;5026419;28;20013;-80
2023/12/15 02:21:18;;;;;;;34.83;13.05;;;;;;;;;;5016584;28;20090;-80
2023/12/15 02:23:44;;;;;;;41.22;12.85;;;;;;;;;;5020249;28;20080;-80
2023/12/15 02:26:11;;;;;;;42.65;13.18;;;;;;;;;;5010818;28;20053;-80
2023/12/15 02:28:37;;;;;;;36.55;12.35;;;;;;;;;;5019696;28;20088;-80
2023/12/15 02:31:03;;;;;;;34.72;12.27;;;;;;;;;;5009970;28;20101;-80
2023/12/15 02:33:29;;;;;;;36.55;11.95;;;;;;;;;;5021700;28;20021;-80
2023/12/15 02:35:55;;;;;;;33.38;11.10;;;;;;;;;;5009685;28;20022;-80
2023/12/15 02:38:21;;;;;;;44.88;12.60;;;;;;;;;;5019829;28;20030;-80
2023/12/15 02:40:47;;;;;;;31.80;11.75;;;;;;;;;;5009853;28;20014;-80
2023/12/15 02:43:13;;;;;;;42.25;12.07;;;;;;;;;;5020094;28;20029;-80
2023/12/15 02:45:39;;;;;;;36.65;11.32;;;;;;;;;;5022412;28;20018;-80
2023/12/15 02:48:05;;;;;;;35.40;11.70;;;;;;;;;;5014408;28;20025;-80
2023/12/15 02:50:31;;;;;;;38.38;11.35;;;;;;;;;;5025419;28;20014;-80
2023/12/15 02:52:57;;;;;;;37.08;11.48;;;;;;;;;;5029812;28;20385;-80
2023/12/15 02:55:23;;;;;;;46.55;11.63;;;;;;;;;;5029807;28;20009;-79
2023/12/15 02:57:49;;;;;;;37.58;11.13;;;;;;;;;;5027760;28;20034;-80
2023/12/15 03:00:15;;;;;;;48.08;12.00;;;;;;;;;;5025488;28;20397;-80
2023/12/15 03:02:41;;;;;;;47.55;12.38;;;;;;;;;;5027602;28;20444;-80
2023/12/15 03:05:07;;;;;;;35.97;10.35;;;;;;;;;;5011153;28;20045;-80
2023/12/15 03:07:33;;;;;;;39.03;10.45;;;;;;;;;;5010448;28;20026;-80
2023/12/15 03:09:59;;;;;;;31.02;10.00;;;;;;;;;;5019139;28;20010;-80
2023/12/15 03:12:25;;;;;;;33.25;9.52;;;;;;;;;;5028873;28;20359;-80
2023/12/15 03:14:51;;;;;;;40.50;10.10;;;;;;;;;;5018426;28;20017;-80
2023/12/15 03:17:17;;;;;;;47.90;9.70;;;;;;;;;;5010698;28;20099;-80
2023/12/15 03:19:43;;;;;;;36.97;9.70;;;;;;;;;;5023207;28;20021;-80
2023/12/15 03:22:09;;;;;;;34.97;9.77;;;;;;;;;;5020013;28;20461;-80
2023/12/15 03:24:35;;;;;;;27.25;8.73;;;;;;;;;;5026227;28;20236;-80
2023/12/15 03:27:01;;;;;;;30.48;8.10;;;;;;;;;;5015983;28;20123;-80
2023/12/15 03:29:27;;;;;;;34.72;8.15;;;;;;;;;;5018825;28;20033;-80
2023/12/15 03:31:53;;;;;;;29.63;8.55;;;;;;;;;;5019221;28;20021;-80
2023/12/15 03:34:19;;;;;;;34.70;7.43;;;;;;;;;;5017996;28;20014;-80
2023/12/15 03:36:46;;;;;;;32.42;7.30;;;;;;;;;;5028649;28;20097;-80
2023/12/15 03:39:12;;;;;;;31.42;6.43;;;;;;;;;;5025895;28;20018;-80
2023/12/15 03:41:38;;;;;;;30.80;6.93;;;;;;;;;;5022352;28;20072;-80
2023/12/15 03:44:04;;;;;;;35.63;7.03;;;;;;;;;;5020351;28;20405;-80
2023/12/15 03:46:30;;;;;;;26.92;6.55;;;;;;;;;;5024014;28;20104;-80
2023/12/15 03:48:56;;;;;;;36.63;7.32;;;;;;;;;;5029793;28;20033;-80
2023/12/15 03:51:22;;;;;;;35.55;6.38;;;;;;;;;;5016912;28;20029;-80
2023/12/15 03:53:48;;;;;;;39.60;6.35;;;;;;;;;;5028638;28;20076;-80
2023/12/15 03:56:23;;;;;;;40.75;7.18;;;;;;;;;;5011147;28;20013;-80
2023/12/15 03:58:49;;;;;;;30.17;6.50;;;;;;;;;;5015013;28;20017;-80
2023/12/15 04:01:15;;;;;;;30.85;6.63;;;;;;;;;;5021621;28;20016;-80
2023/12/15 04:03:41;;;;;;;35.13;6.35;;;;;;;;;;5018707;28;20021;-80
2023/12/15 04:06:08;;;;;;;30.73;6.60;;;;;;;;;;5018917;28;20096;-80
2023/12/15 04:08:34;;;;;;;39.28;6.88;;;;;;;;;;5026311;28;20068;-80
2023/12/15 04:11:00;;;;;;;34.17;6.55;;;;;;;;;;5021040;28;20101;-80
2023/12/15 04:13:27;;;;;;;27.65;6.70;;;;;;;;;;5027167;28;20281;-80
2023/12/15 04:15:53;;;;;;;30.52;6.22;;;;;;;;;;5018160;28;20014;-80
2023/12/15 04:18:19;;;;;;;28.70;5.95;;;;;;;;;;5013584;28;20056;-80
2023/12/15 04:20:45;;;;;;;38.20;6.50;;;;;;;;;;5019326;28;20014;-80
2023/12/15 04:23:11;;;;;;;27.50;5.80;;;;;;;;;;5009386;28;20028;-79
2023/12/15 04:25:37;;;;;;;39.33;6.65;;;;;;;;;;5021542;28;20014;-80
2023/12/15 04:28:03;;;;;;;36.03;6.43;;;;;;;;;;5010164;28;20052;-80
2023/12/15 04:30:29;;;;;;;35.33;6.20;;;;;;;;;;5016009;28;20013;-80
2023/12/15 04:33:07;;;;;;;41.03;6.43;;;;;;;;;;5026654;28;20302;-80
2023/12/15 04:35:33;;;;;;;43.55;6.80;;;;;;;;;;5016731;28;20046;-80
2023/12/15 04:37:59;;;;;;;33.55;6.38;;;;;;;;;;5008166;28;20014;-80
2023/12/15 04:40:25;;;;;;;37.78;6.18;;;;;;;;;;5016756;28;20017;-80
2023/12/15 04:42:51;;;;;;;29.38;5.55;;;;;;;;;;5008456;28;20137;-80
2023/12/15 04:45:17;;;;;;;38.50;6.80;;;;;;;;;;5007195;28;20022;-80
2023/12/15 04:47:43;;;;;;;35.20;6.03;;;;;;;;;;5017702;28;20406;-80
2023/12/15 04:50:09;;;;;;;42.58;6.03;;;;;;;;;;5027241;28;20481;-80
2023/12/15 04:52:35;;;;;;;30.35;5.70;;;;;;;;;;5018503;28;20022;-80
2023/12/15 04:55:01;;;;;;;32.75;6.10;;;;;;;;;;5019351;28;20097;-80
2023/12/15 04:57:27;;;;;;;37.42;7.32;;;;;;;;;;5017268;28;20063;-80
2023/12/15 04:59:53;;;;;;;44.20;7.03;;;;;;;;;;5024882;28;20016;-80
2023/12/15 05:02:19;;;;;;;37.70;5.97;;;;;;;;;;5025972;28;20393;-79
2023/12/15 05:04:45;;;;;;;34.35;6.35;;;;;;;;;;5015760;28;20013;-80
2023/12/15 05:07:11;;;;;;;105.85;10.68;;;;;;;;;;5007988;28;20028;-80
2023/12/15 05:09:37;;;;;;;121.28;12.02;;;;;;;;;;5011432;28;20542;-79
2023/12/15 05:12:04;;;;;;;200.93;16.85;;;;;;;;;;5011993;28;20223;-80
2023/12/15 05:14:30;;;;;;;230.82;18.60;;;;;;;;;;5016268;28;20013;-80
2023/12/15 05:16:56;;;;;;;146.02;14.05;;;;;;;;;;5016194;28;20034;-80
2023/12/15 05:19:22;;;;;;;30.85;5.75;;;;;;;;;;5021501;28;20024;-80
2023/12/15 05:21:48;;;;;;;39.65;6.55;;;;;;;;;;5018372;28;20372;-80
2023/12/15 05:24:15;;;;;;;38.92;5.55;;;;;;;;;;5015688;28;20104;-81
2023/12/15 05:26:41;;;;;;;41.30;5.57;;;;;;;;;;4999314;28;20067;-80
2023/12/15 05:29:07;;;;;;;38.80;5.53;;;;;;;;;;5012620;28;20021;-80
2023/12/15 05:31:33;;;;;;;43.22;5.93;;;;;;;;;;5012597;28;20447;-76
2023/12/15 05:33:59;;;;;;;32.83;5.28;;;;;;;;;;5024477;28;20006;-83
2023/12/15 05:36:25;;;;;;;33.70;5.78;;;;;;;;;;5017960;28;20016;-83
2023/12/15 05:38:52;;;;;;;64.95;7.80;;;;;;;;;;5021692;28;20014;-81
2023/12/15 05:41:18;;;;;;;35.80;5.93;;;;;;;;;;5009893;28;20041;-81
2023/12/15 05:43:44;;;;;;;34.63;6.10;;;;;;;;;;5004841;28;20029;-80
2023/12/15 05:46:11;;;;;;;47.63;6.28;;;;;;;;;;5005938;28;20072;-82
2023/12/15 05:48:37;;;;;;;29.38;5.15;;;;;;;;;;5005984;28;20049;-83
2023/12/15 05:51:03;;;;;;;37.33;5.75;;;;;;;;;;5008653;28;20095;-83
2023/12/15 05:53:29;;;;;;;39.10;5.70;;;;;;;;;;5006925;28;20005;-83
2023/12/15 05:55:55;;;;;;;44.92;6.45;;;;;;;;;;5007438;28;20017;-84
2023/12/15 05:58:21;;;;;;;30.73;5.30;;;;;;;;;;5013127;28;20041;-85
2023/12/15 06:00:49;;;;;;;33.72;6.05;;;;;;;;;;5018911;28;20462;-83
2023/12/15 06:03:17;;;;;;;43.00;5.47;;;;;;;;;;5011848;28;20014;-84
2023/12/15 06:05:43;;;;;;;35.13;5.43;;;;;;;;;;5014576;28;20037;-80
2023/12/15 06:08:09;;;;;;;34.85;5.30;;;;;;;;;;5011769;28;20452;-81
2023/12/15 06:10:35;;;;;;;38.40;6.28;;;;;;;;;;5018311;28;20097;-82
2023/12/15 06:13:01;;;;;;;38.70;5.80;;;;;;;;;;5013957;28;20102;-81
2023/12/15 06:15:27;;;;;;;40.67;5.90;;;;;;;;;;5007808;28;20097;-81
2023/12/15 06:17:53;;;;;;;37.33;5.32;;;;;;;;;;5017185;28;20033;-82
2023/12/15 06:20:19;;;;;;;43.60;5.80;;;;;;;;;;5013940;28;20028;-80
2023/12/15 06:22:45;;;;;;;34.00;6.10;;;;;;;;;;5019702;28;20037;-82
2023/12/15 06:25:11;;;;;;;41.88;5.78;;;;;;;;;;5014355;28;20040;-84
2023/12/15 06:27:37;;;;;;;42.38;5.97;;;;;;;;;;5020147;28;20374;-81
2023/12/15 06:30:03;;;;;;;40.17;5.55;;;;;;;;;;5013685;28;20574;-83
2023/12/15 06:32:29;;;;;;;36.22;5.75;;;;;;;;;;5012042;28;20076;-83
2023/12/15 06:34:55;;;;;;;34.60;5.55;;;;;;;;;;5012040;28;20014;-84
2023/12/15 06:37:21;;;;;;;28.92;5.32;;;;;;;;;;5008869;28;20076;-78
2023/12/15 06:39:47;;;;;;;45.00;6.28;;;;;;;;;;5013865;28;20350;-78
2023/12/15 06:42:13;;;;;;;37.25;5.95;;;;;;;;;;5012115;28;20049;-78
2023/12/15 06:44:39;;;;;;;33.47;5.88;;;;;;;;;;5012115;28;20022;-78
2023/12/15 06:47:06;;;;;;;36.00;5.57;;;;;;;;;;5008751;28;20022;-78
2023/12/15 06:49:32;;;;;;;33.85;5.78;;;;;;;;;;5011313;28;20026;-78
2023/12/15 06:51:58;;;;;;;39.67;6.53;;;;;;;;;;5013297;28;20482;-78
2023/12/15 06:54:24;;;;;;;39.20;6.82;;;;;;;;;;5007068;28;20433;-78
2023/12/15 06:56:50;;;;;;;38.15;6.20;;;;;;;;;;5007022;28;20007;-78
2023/12/15 06:59:16;;;;;;;43.17;6.22;;;;;;;;;;5008801;28;20010;-78
2023/12/15 07:01:42;;;;;;;45.67;6.82;;;;;;;;;;5008693;28;20018;-78
2023/12/15 07:04:08;;;;;;;36.08;5.95;;;;;;;;;;5008994;28;20093;-78
2023/12/15 07:06:34;;;;;;;47.83;6.63;;;;;;;;;;5009668;28;20500;-78
2023/12/15 07:09:00;;;;;;;39.15;5.85;;;;;;;;;;5007384;28;20026;-78
2023/12/15 07:11:26;;;;;;;52.92;7.15;;;;;;;;;;5008625;28;20024;-78
2023/12/15 07:13:52;;;;;;;39.75;7.30;;;;;;;;;;5005103;28;20009;-78
2023/12/15 07:16:18;;;;;;;43.67;6.25;;;;;;;;;;5006454;28;20098;-78
2023/12/15 07:18:45;;;;;;;40.25;5.78;;;;;;;;;;5006772;28;20020;-78
2023/12/15 07:21:11;;;;;;;44.15;6.82;;;;;;;;;;5008757;28;20030;-78
2023/12/15 07:23:37;;;;;;;45.15;6.20;;;;;;;;;;5006756;28;20014;-78
2023/12/15 07:26:04;;;;;;;39.45;6.22;;;;;;;;;;5012406;28;20466;-78
2023/12/15 07:28:30;;;;;;;42.60;7.22;;;;;;;;;;5007050;28;20026;-78
2023/12/15 07:30:56;;;;;;;44.53;6.30;;;;;;;;;;5007529;28;20376;-78
2023/12/15 07:33:22;;;;;;;44.20;6.32;;;;;;;;;;5026814;28;20032;-78
2023/12/15 07:35:48;;;;;;;47.22;6.70;;;;;;;;;;5007642;28;20014;-78
2023/12/15 07:38:14;;;;;;;44.95;6.55;;;;;;;;;;5012802;28;20010;-78
2023/12/15 07:40:40;;;;;;;50.50;6.97;;;;;;;;;;5009923;28;20022;-78
2023/12/15 07:43:06;;;;;;;46.97;6.57;;;;;;;;;;5013499;28;20029;-78
2023/12/15 07:45:32;;;;;;;50.00;7.10;;;;;;;;;;5010215;28;20486;-78
2023/12/15 07:47:59;;;;;;;51.20;7.30;;;;;;;;;;5007260;28;20084;-78
2023/12/15 07:50:25;;;;;;;47.75;7.40;;;;;;;;;;5002958;28;20474;-78
2023/12/15 07:52:51;;;;;;;45.03;7.50;;;;;;;;;;5005626;28;20025;-78
2023/12/15 07:55:18;;;;;;;48.90;7.32;;;;;;;;;;5009626;28;20002;-78
2023/12/15 07:57:44;;;;;;;47.58;7.97;;;;;;;;;;5007915;28;20014;-78
2023/12/15 08:00:11;;;;;;;49.80;7.93;;;;;;;;;;5002488;28;20027;-78
2023/12/15 08:02:37;;;;;;;59.35;8.02;;;;;;;;;;5003333;28;20477;-78
2023/12/15 08:05:03;;;;;;;52.17;8.85;;;;;;;;;;5007110;28;20010;-78
2023/12/15 08:07:29;;;;;;;46.92;7.65;;;;;;;;;;5014144;28;20025;-77
2023/12/15 08:09:55;;;;;;;54.25;8.02;;;;;;;;;;5027615;28;20021;-77
2023/12/15 08:12:21;;;;;;;49.97;7.05;;;;;;;;;;5019997;28;20024;-77
2023/12/15 08:14:47;;;;;;;35.50;6.43;;;;;;;;;;5019054;28;20022;-78
2023/12/15 08:17:13;;;;;;;50.28;7.50;;;;;;;;;;5018015;28;20500;-80
2023/12/15 08:19:40;;;;;;;53.30;7.68;;;;;;;;;;5010940;28;20024;-78
2023/12/15 08:22:06;;;;;;;48.38;7.45;;;;;;;;;;5014860;28;20096;-78
2023/12/15 08:24:32;;;;;;;44.65;7.20;;;;;;;;;;5019791;28;20108;-79
2023/12/15 08:26:58;;;;;;;48.63;6.57;;;;;;;;;;5010930;28;20010;-80
2023/12/15 08:29:24;;;;;;;55.40;7.95;;;;;;;;;;5026473;28;20025;-80
2023/12/15 08:31:50;;;;;;;50.00;8.27;;;;;;;;;;5014449;28;20092;-80
2023/12/15 08:34:17;;;;;;;45.78;8.70;;;;;;;;;;5026412;28;20422;-80
2023/12/15 08:36:43;;;;;;;50.25;9.40;;;;;;;;;;5011682;28;20409;-80
2023/12/15 08:39:10;;;;;;;52.67;8.70;;;;;;;;;;5005077;28;20010;-79
2023/12/15 08:41:36;;;;;;;53.03;8.48;;;;;;;;;;5007097;28;20005;-80
2023/12/15 08:44:02;;;;;;;64.05;8.48;;;;;;;;;;5008803;28;20340;-80
2023/12/15 08:46:28;;;;;;;54.03;9.13;;;;;;;;;;5010186;28;20072;-80
2023/12/15 08:48:54;;;;;;;47.40;8.43;;;;;;;;;;5006021;28;20045;-79
2023/12/15 08:51:20;;;;;;;57.60;9.60;;;;;;;;;;5024611;28;20067;-79
2023/12/15 08:53:46;;;;;;;58.35;8.90;;;;;;;;;;5040665;28;20075;-78
2023/12/15 08:56:12;;;;;;;58.47;7.68;;;;;;;;;;5007889;28;20554;-79
2023/12/15 08:58:38;;;;;;;49.67;7.15;;;;;;;;;;5021468;28;20443;-78
2023/12/15 09:01:04;;;;;;;35.47;5.88;;;;;;;;;;5015154;28;20478;-79
2023/12/15 09:03:30;;;;;;;51.90;8.32;;;;;;;;;;5010585;28;20108;-78
2023/12/15 09:05:56;;;;;;;55.85;8.15;;;;;;;;;;5008195;28;20030;-79
2023/12/15 09:08:22;;;;;;;51.00;7.90;;;;;;;;;;5007422;28;20025;-78
2023/12/15 09:10:50;;;;;;;49.85;7.82;;;;;;;;;;5017394;28;20083;-78
2023/12/15 09:13:17;;;;;;;54.67;9.02;;;;;;;;;;5010700;28;20125;-80
2023/12/15 09:15:43;;;;;;;49.90;8.43;;;;;;;;;;5004548;28;20056;-80
2023/12/15 09:18:09;;;;;;;56.17;8.23;;;;;;;;;;5000836;28;20029;-80
2023/12/15 09:20:35;;;;;;;43.17;7.82;;;;;;;;;;5008985;28;20025;-80
2023/12/15 09:23:06;;;;;;;57.55;8.60;;;;;;;;;;5020206;28;20389;-80
2023/12/15 09:25:32;;;;;;;53.33;8.63;;;;;;;;;;5024339;28;20009;-80
2023/12/15 09:27:58;;;;;;;56.35;8.98;;;;;;;;;;5009616;28;20359;-80
2023/12/15 09:30:24;;;;;;;61.35;9.23;;;;;;;;;;5006723;28;20028;-80
2023/12/15 09:32:50;;;;;;;40.47;8.80;;;;;;;;;;5010697;28;20021;-80
2023/12/15 09:35:17;;;;;;;42.92;8.02;;;;;;;;;;5028683;28;20347;-80
2023/12/15 09:37:43;;;;;;;58.95;8.93;;;;;;;;;;5030570;28;20041;-80
2023/12/15 09:40:10;;;;;;;58.78;8.63;;;;;;;;;;5012981;28;20022;-80
2023/12/15 09:42:36;;;;;;;50.25;8.27;;;;;;;;;;5011833;28;20014;-81
2023/12/15 09:45:02;;;;;;;61.85;9.60;;;;;;;;;;5025734;28;20462;-80
2023/12/15 09:47:29;;;;;;;52.35;8.45;;;;;;;;;;5030006;28;20461;-80
2023/12/15 09:49:57;;;;;;;45.58;7.68;;;;;;;;;;5015801;28;20030;-80
2023/12/15 09:52:25;;;;;;;46.40;8.40;;;;;;;;;;5011251;28;20399;-81
2023/12/15 09:54:51;;;;;;;49.55;8.85;;;;;;;;;;5023180;28;20256;-80
2023/12/15 09:57:18;;;;;;;48.45;8.35;;;;;;;;;;5030210;28;20347;-80
2023/12/15 09:59:44;;;;;;;47.92;8.18;;;;;;;;;;5018836;28;20026;-80
2023/12/15 10:02:10;;;;;;;51.95;8.15;;;;;;;;;;5011504;28;20025;-80
2023/12/15 10:04:36;;;;;;;56.58;9.60;;;;;;;;;;5021291;28;20022;-80
2023/12/15 10:07:03;;;;;;;56.47;8.05;;;;;;;;;;5014331;28;20033;-80
2023/12/15 10:09:29;;;;;;;57.10;8.27;;;;;;;;;;5011108;28;20022;-80
2023/12/15 10:11:55;;;;;;;45.83;7.60;;;;;;;;;;5010294;28;20369;-80
2023/12/15 10:14:21;;;;;;;54.22;8.15;;;;;;;;;;5010245;28;20017;-80
2023/12/15 10:16:47;;;;;;;49.47;7.40;;;;;;;;;;5010927;28;20061;-81
2023/12/15 10:19:13;;;;;;;35.30;5.63;;;;;;;;;;5012061;28;20076;-80
2023/12/15 10:21:39;;;;;;;48.58;7.18;;;;;;;;;;5010730;28;21096;-80
2023/12/15 10:24:25;;;;;;;43.20;7.35;;;;;;;;;;5011858;28;20363;-80
2023/12/15 10:26:51;;;;;;;45.28;7.15;;;;;;;;;;5012842;28;20469;-81
2023/12/15 10:29:18;;;;;;;45.55;7.07;;;;;;;;;;5025910;28;20040;-81
2023/12/15 10:31:45;;;;;;;42.90;8.05;;;;;;;;;;4997431;28;20010;-80
2023/12/15 10:34:11;;;;;;;44.00;6.28;;;;;;;;;;5010556;28;20010;-80
2023/12/15 10:36:40;;;;;;;48.72;7.18;;;;;;;;;;5020863;28;20011;-80
2023/12/15 10:39:07;;;;;;;43.42;7.15;;;;;;;;;;5017879;28;20071;-81
2023/12/15 10:41:34;;;;;;;46.55;7.40;;;;;;;;;;5023463;28;20037;-80
2023/12/15 10:44:03;;;;;;;41.53;7.25;;;;;;;;;;5014237;28;20013;-80
2023/12/15 10:46:29;;;;;;;47.03;6.90;;;;;;;;;;5009951;28;20025;-80
2023/12/15 10:48:56;;;;;;;46.35;6.88;;;;;;;;;;5005918;28;20022;-80
2023/12/15 10:51:24;;;;;;;42.05;7.30;;;;;;;;;;5010263;28;20024;-80
2023/12/15 10:53:53;;;;;;;38.33;6.03;;;;;;;;;;5007774;28;20041;-81
2023/12/15 10:56:19;;;;;;;37.67;6.32;;;;;;;;;;5019010;28;20020;-81
2023/12/15 10:58:45;;;;;;;44.47;6.18;;;;;;;;;;5025743;28;20052;-80
2023/12/15 11:01:12;;;;;;;33.67;5.40;;;;;;;;;;5017779;28;20050;-81
2023/12/15 11:03:41;;;;;;;36.28;5.45;;;;;;;;;;5001047;28;20026;-84
2023/12/15 11:06:07;;;;;;;41.58;6.45;;;;;;;;;;5021770;28;20096;-78
2023/12/15 11:08:33;;;;;;;30.55;5.00;;;;;;;;;;5014361;28;20100;-83
2023/12/15 11:11:00;;;;;;;36.28;6.38;;;;;;;;;;5015191;28;20117;-82
2023/12/15 11:13:44;;;;;;;38.25;5.32;;;;;;;;;;5011930;28;20361;-82
2023/12/15 11:16:11;;;;;;;36.45;5.10;;;;;;;;;;5016664;28;20374;-81
2023/12/15 11:18:42;;;;;;;32.92;5.20;;;;;;;;;;5011422;28;20018;-79
2023/12/15 11:21:10;;;;;;;38.38;5.93;;;;;;;;;;5021458;28;20479;-79
2023/12/15 11:23:57;;;;;;;31.13;5.63;;;;;;;;;;5017461;28;20017;-80
2023/12/15 11:26:33;;;;;;;35.20;6.07;;;;;;;;;;5026747;28;20022;-80
2023/12/15 11:29:03;;;;;;;35.90;5.20;;;;;;;;;;5026952;28;20029;-77
2023/12/15 11:31:29;;;;;;;32.05;4.53;;;;;;;;;;5025696;28;20018;-80
2023/12/15 11:33:56;;;;;;;41.47;6.43;;;;;;;;;;5028852;28;21113;-80
2023/12/15 11:36:22;;;;;;;30.58;5.75;;;;;;;;;;5011387;28;20010;-77
2023/12/15 11:38:48;;;;;;;32.80;5.28;;;;;;;;;;5024527;28;20014;-78
2023/12/15 11:41:16;;;;;;;31.42;4.85;;;;;;;;;;5037305;28;20370;-79
2023/12/15 11:43:43;;;;;;;34.03;5.68;;;;;;;;;;5028783;28;20049;-79
2023/12/15 11:46:13;;;;;;;31.55;4.78;;;;;;;;;;5018381;28;20076;-79
2023/12/15 11:48:39;;;;;;;28.83;5.00;;;;;;;;;;5009873;28;20084;-79
2023/12/15 11:51:05;;;;;;;34.22;6.43;;;;;;;;;;5020524;28;20017;-79
2023/12/15 11:53:32;;;;;;;34.97;5.95;;;;;;;;;;5029842;28;20009;-78
2023/12/15 11:56:01;;;;;;;28.70;4.63;;;;;;;;;;5023292;28;20022;-79
2023/12/15 11:58:27;;;;;;;30.02;4.15;;;;;;;;;;5008864;28;20014;-79
2023/12/15 12:00:53;;;;;;;27.27;4.82;;;;;;;;;;5013531;28;20049;-79
2023/12/15 12:03:20;;;;;;;30.70;4.75;;;;;;;;;;5027835;28;20017;-78
2023/12/15 12:05:47;;;;;;;30.55;4.10;;;;;;;;;;5025346;28;20547;-79
2023/12/15 12:08:14;;;;;;;21.35;4.18;;;;;;;;;;5008637;28;20048;-78
2023/12/15 12:10:40;;;;;;;27.30;4.55;;;;;;;;;;5009802;28;20021;-78
2023/12/15 12:13:07;;;;;;;30.33;4.07;;;;;;;;;;5029404;28;20009;-79
2023/12/15 12:15:47;;;;;;;23.75;4.30;;;;;;;;;;5027820;28;20048;-78
2023/12/15 12:18:14;;;;;;;24.77;4.75;;;;;;;;;;4989926;28;20037;-79
2023/12/15 12:20:41;;;;;;;18.88;3.90;;;;;;;;;;4990299;28;20489;-78
2023/12/15 12:23:07;;;;;;;29.73;3.80;;;;;;;;;;5043956;28;20178;-78
2023/12/15 12:25:33;;;;;;;26.45;4.03;;;;;;;;;;5028173;28;20053;-79
2023/12/15 12:27:59;;;;;;;21.33;3.80;;;;;;;;;;5011352;28;20540;-79
2023/12/15 12:30:25;;;;;;;30.00;4.13;;;;;;;;;;5008578;28;20028;-79
2023/12/15 12:32:51;;;;;;;28.73;3.80;;;;;;;;;;5025603;28;20524;-78
2023/12/15 12:35:17;;;;;;;27.33;3.63;;;;;;;;;;5029657;28;20021;-79
2023/12/15 12:37:43;;;;;;;26.83;4.40;;;;;;;;;;5022512;28;20018;-78
2023/12/15 12:40:11;;;;;;;32.88;3.97;;;;;;;;;;5008157;28;20573;-79
2023/12/15 12:42:37;;;;;;;25.15;4.30;;;;;;;;;;5021705;28;20013;-79
2023/12/15 12:45:03;;;;;;;26.50;3.78;;;;;;;;;;5029130;28;20092;-79
2023/12/15 12:47:29;;;;;;;28.95;3.78;;;;;;;;;;5016940;28;20020;-79
2023/12/15 12:49:56;;;;;;;24.60;4.18;;;;;;;;;;5008190;28;20117;-80
2023/12/15 12:52:22;;;;;;;35.88;4.50;;;;;;;;;;5018672;28;20104;-78
2023/12/15 12:54:49;;;;;;;25.85;4.32;;;;;;;;;;5018543;28;20106;-78
2023/12/15 12:57:15;;;;;;;29.52;4.15;;;;;;;;;;5010409;28;20470;-78
2023/12/15 12:59:41;;;;;;;27.73;3.67;;;;;;;;;;5020912;28;20053;-78
2023/12/15 13:02:07;;;;;;;24.08;3.95;;;;;;;;;;5010415;28;20391;-79
2023/12/15 13:04:36;;;;;;;26.35;3.50;;;;;;;;;;5008953;28;20029;-78
2023/12/15 13:07:03;;;;;;;26.50;4.25;;;;;;;;;;5008502;28;20108;-78
2023/12/15 13:09:29;;;;;;;22.05;3.90;;;;;;;;;;5007333;28;20117;-79
2023/12/15 13:11:55;;;;;;;29.48;3.72;;;;;;;;;;5008004;28;20550;-79
2023/12/15 13:14:22;;;;;;;34.25;4.93;;;;;;;;;;5008675;28;20020;-79
2023/12/15 13:16:48;;;;;;;23.45;4.13;;;;;;;;;;5018876;28;20057;-79
2023/12/15 13:19:14;;;;;;;17.42;4.00;;;;;;;;;;5010491;28;20061;-79
2023/12/15 13:21:40;;;;;;;21.25;3.80;;;;;;;;;;5007877;28;20049;-79
2023/12/15 13:24:06;;;;;;;20.60;3.85;;;;;;;;;;5009200;28;20441;-79
2023/12/15 13:26:32;;;;;;;22.65;4.00;;;;;;;;;;5007617;28;20026;-79
2023/12/15 13:28:58;;;;;;;23.35;3.63;;;;;;;;;;5008614;28;20457;-78
2023/12/15 13:31:24;;;;;;;24.95;4.18;;;;;;;;;;5007115;28;20010;-78
2023/12/15 13:33:50;;;;;;;22.65;3.63;;;;;;;;;;5009588;28;20036;-78
2023/12/15 13:36:17;;;;;;;20.60;3.80;;;;;;;;;;5008350;28;20565;-79
2023/12/15 13:38:43;;;;;;;23.65;4.05;;;;;;;;;;5009421;28;20101;-78
2023/12/15 13:41:10;;;;;;;21.60;4.05;;;;;;;;;;5008205;28;20036;-78
2023/12/15 13:43:39;;;;;;;24.48;3.42;;;;;;;;;;5009082;28;20022;-78
2023/12/15 13:46:05;;;;;;;22.77;3.85;;;;;;;;;;5009476;28;20022;-78
2023/12/15 13:48:31;;;;;;;29.52;4.07;;;;;;;;;;5020580;28;20104;-78
2023/12/15 13:50:58;;;;;;;23.63;4.38;;;;;;;;;;5028869;28;20485;-78
2023/12/15 13:53:25;;;;;;;24.73;3.90;;;;;;;;;;5017222;28;20137;-79
2023/12/15 13:55:51;;;;;;;18.20;4.05;;;;;;;;;;5007688;28;20022;-79
2023/12/15 13:58:17;;;;;;;23.50;4.88;;;;;;;;;;5014297;28;20425;-78
2023/12/15 14:00:44;;;;;;;24.60;3.90;;;;;;;;;;5006468;28;20300;-78
2023/12/15 14:03:10;;;;;;;20.58;3.75;;;;;;;;;;5013575;28;20064;-78
2023/12/15 14:05:36;;;;;;;19.40;4.05;;;;;;;;;;5007464;28;20026;-78
2023/12/15 14:08:02;;;;;;;27.92;4.53;;;;;;;;;;5012344;28;20010;-79
2023/12/15 14:10:29;;;;;;;25.95;5.25;;;;;;;;;;5027368;28;20017;-79
2023/12/15 14:12:55;;;;;;;20.38;3.58;;;;;;;;;;5020315;28;20359;-79
2023/12/15 14:15:22;;;;;;;26.25;3.95;;;;;;;;;;5006699;28;20537;-79
2023/12/15 14:17:48;;;;;;;17.10;3.30;;;;;;;;;;5010704;28;20474;-78
2023/12/15 14:20:14;;;;;;;23.05;5.05;;;;;;;;;;5031482;28;20017;-79